createdAt,value
2019-01-31T00:00:46.832Z,14.60
2019-01-31T00:04:00.067Z,13.73
2019-01-31T00:06:53.300Z,13.63
2019-01-31T00:09:55.736Z,14.57
2019-01-31T00:13:08.668Z,13.83
2019-01-31T00:16:36.399Z,14.23
2019-01-31T00:19:46.243Z,12.90
2019-01-31T00:22:42.766Z,13.60
2019-01-31T00:26:01.860Z,13.67
2019-01-31T00:29:02.841Z,14.00
2019-01-31T00:32:28.997Z,14.13
2019-01-31T00:35:49.202Z,13.40
2019-01-31T00:39:08.977Z,14.00
2019-01-31T00:42:02.784Z,14.27
2019-01-31T00:45:14.549Z,13.50
2019-01-31T00:48:18.494Z,13.30
2019-01-31T00:51:08.302Z,13.57
2019-01-31T00:54:24.739Z,13.60
2019-01-31T00:57:45.785Z,12.93
2019-01-31T01:01:06.903Z,13.33
2019-01-31T01:04:20.791Z,12.90
2019-01-31T01:07:23.034Z,13.37
2019-01-31T01:10:40.151Z,12.57
2019-01-31T01:14:05.525Z,12.43
2019-01-31T01:17:18.311Z,12.10
2019-01-31T01:20:20.407Z,11.77
2019-01-31T01:23:36.562Z,12.43
2019-01-31T01:26:41.985Z,12.23
2019-01-31T01:29:52.851Z,12.40
2019-01-31T01:33:08.687Z,11.83
2019-01-31T01:36:25.187Z,12.80
2019-01-31T01:39:40.921Z,12.00
2019-01-31T01:42:43.428Z,11.57
2019-01-31T01:45:38.692Z,11.10
2019-01-31T01:48:39.000Z,11.57
2019-01-31T01:51:42.278Z,12.40
2019-01-31T01:55:11.325Z,11.27
2019-01-31T01:58:15.248Z,10.97
2019-01-31T02:01:24.694Z,10.08
2019-01-31T02:04:26.203Z,9.87
2019-01-31T02:07:14.846Z,10.57
2019-01-31T02:10:21.440Z,10.80
2019-01-31T02:13:37.585Z,10.77
2019-01-31T02:16:59.912Z,9.80
2019-01-31T02:20:05.910Z,9.97
2019-01-31T02:23:28.576Z,10.13
2019-01-31T02:26:45.995Z,9.60
2019-01-31T02:36:45.685Z,9.50
2019-01-31T02:39:43.084Z,8.83
2019-01-31T02:42:49.327Z,9.13
2019-01-31T02:45:54.747Z,10.03
2019-01-31T02:49:09.740Z,9.25
2019-01-31T02:52:18.093Z,8.87
2019-01-31T02:55:44.287Z,9.15
2019-01-31T02:58:53.106Z,9.07
2019-01-31T03:02:12.935Z,8.80
2019-01-31T03:05:19.243Z,9.50
2019-01-31T03:08:45.690Z,9.20
2019-01-31T03:11:57.754Z,9.67
2019-01-31T03:14:46.309Z,9.53
2019-01-31T03:17:29.773Z,9.90
2019-01-31T03:20:29.674Z,9.37
2019-01-31T03:23:43.661Z,9.50
2019-01-31T03:26:32.185Z,9.50
2019-01-31T03:29:31.283Z,10.00
2019-01-31T03:32:39.880Z,10.33
2019-01-31T03:35:36.796Z,10.83
2019-01-31T03:38:42.652Z,11.13
2019-01-31T03:41:38.786Z,11.38
2019-01-31T03:44:34.857Z,11.88
2019-01-31T03:47:31.961Z,12.18
2019-01-31T03:50:58.277Z,12.43
2019-01-31T03:54:15.347Z,13.03
2019-01-31T03:57:13.273Z,12.70
2019-01-31T04:00:34.258Z,12.85
2019-01-31T04:03:36.827Z,12.97
2019-01-31T04:06:19.491Z,12.70
2019-01-31T04:08:54.255Z,13.87
2019-01-31T04:11:29.345Z,13.77
2019-01-31T04:14:06.451Z,13.88
2019-01-31T04:16:40.778Z,14.38
2019-01-31T04:19:15.720Z,14.00
2019-01-31T04:21:50.176Z,14.53
2019-01-31T04:24:24.985Z,15.43
2019-01-31T04:26:59.865Z,16.02
2019-01-31T04:29:34.802Z,15.35
2019-01-31T04:32:10.168Z,16.60
2019-01-31T04:34:44.776Z,16.07
2019-01-31T04:37:20.003Z,15.67
2019-01-31T04:39:54.930Z,16.30
2019-01-31T04:42:29.538Z,15.93
2019-01-31T04:45:04.046Z,16.73
2019-01-31T04:47:39.194Z,16.70
2019-01-31T04:50:15.595Z,17.00
2019-01-31T04:52:50.295Z,17.53
2019-01-31T04:55:24.489Z,18.00
2019-01-31T04:57:59.330Z,18.07
2019-01-31T05:00:34.070Z,17.97
2019-01-31T05:03:08.768Z,17.70
2019-01-31T05:05:43.357Z,17.60
2019-01-31T05:08:17.943Z,16.70
2019-01-31T05:10:54.652Z,16.85
2019-01-31T05:13:29.380Z,15.93
2019-01-31T05:16:04.554Z,15.83
2019-01-31T05:18:39.287Z,15.83
2019-01-31T05:21:13.885Z,16.33
2019-01-31T05:23:48.915Z,16.00
2019-01-31T05:26:23.371Z,15.70
2019-01-31T05:28:58.590Z,16.43
2019-01-31T05:31:33.531Z,15.57
2019-01-31T05:34:07.971Z,16.90
2019-01-31T05:36:46.433Z,17.37
2019-01-31T05:39:21.016Z,16.90
2019-01-31T05:41:56.010Z,17.07
2019-01-31T05:44:30.519Z,16.97
2019-01-31T05:47:05.681Z,18.10
2019-01-31T05:49:40.261Z,17.30
2019-01-31T05:52:15.227Z,18.00
2019-01-31T05:54:50.201Z,18.83
2019-01-31T05:57:25.171Z,18.27
2019-01-31T05:59:59.837Z,19.90
2019-01-31T06:02:36.675Z,20.33
2019-01-31T06:05:12.950Z,19.47
2019-01-31T06:07:47.702Z,20.33
2019-01-31T06:10:28.971Z,20.07
2019-01-31T06:13:03.669Z,20.63
2019-01-31T06:15:38.835Z,21.33
2019-01-31T06:18:13.611Z,20.10
2019-01-31T06:20:48.230Z,21.47
2019-01-31T06:23:22.461Z,20.87
2019-01-31T06:25:57.586Z,21.00
2019-01-31T06:28:32.177Z,21.93
2019-01-31T06:31:08.974Z,20.95
2019-01-31T06:33:43.765Z,20.97
2019-01-31T06:36:18.650Z,20.62
2019-01-31T06:38:52.948Z,21.50
2019-01-31T06:41:27.524Z,21.17
2019-01-31T06:44:02.219Z,22.27
2019-01-31T06:46:37.216Z,21.07
2019-01-31T06:49:11.826Z,23.22
2019-01-31T06:51:46.500Z,22.83
2019-01-31T06:54:40.196Z,23.07
2019-01-31T06:57:14.498Z,22.05
2019-01-31T06:59:49.260Z,22.37
2019-01-31T07:02:23.965Z,22.30
2019-01-31T07:04:58.657Z,22.65
2019-01-31T07:07:34.024Z,22.37
2019-01-31T07:10:28.938Z,24.63
2019-01-31T07:13:03.626Z,22.85
2019-01-31T07:15:38.227Z,23.75
2019-01-31T07:18:13.168Z,24.07
2019-01-31T07:20:47.501Z,22.65
2019-01-31T07:23:21.880Z,23.20
2019-01-31T07:25:56.735Z,24.70
2019-01-31T07:28:32.229Z,24.32
2019-01-31T07:31:07.165Z,24.25
2019-01-31T07:33:42.149Z,24.40
2019-01-31T07:36:16.970Z,24.45
2019-01-31T07:38:52.441Z,24.02
2019-01-31T07:41:27.304Z,25.68
2019-01-31T07:44:01.944Z,24.82
2019-01-31T07:46:36.690Z,25.30
2019-01-31T07:49:43.326Z,25.30
2019-01-31T07:52:18.874Z,26.17
2019-01-31T07:54:53.638Z,26.42
2019-01-31T07:57:28.267Z,27.13
2019-01-31T08:00:03.093Z,25.95
2019-01-31T08:02:37.687Z,25.92
2019-01-31T08:05:14.835Z,25.62
2019-01-31T08:07:49.548Z,25.27
2019-01-31T08:10:35.865Z,26.50
2019-01-31T08:13:10.398Z,27.02
2019-01-31T08:15:45.376Z,27.87
2019-01-31T08:18:19.961Z,28.27
2019-01-31T08:20:55.069Z,29.37
2019-01-31T08:23:29.730Z,28.17
2019-01-31T08:26:04.820Z,30.52
2019-01-31T08:28:40.069Z,29.40
2019-01-31T08:31:14.835Z,28.38
2019-01-31T08:33:49.627Z,26.82
2019-01-31T08:36:44.124Z,27.93
2019-01-31T08:39:19.588Z,27.20
2019-01-31T08:42:03.528Z,29.35
2019-01-31T08:44:30.346Z,29.57
2019-01-31T08:47:05.418Z,28.77
2019-01-31T08:49:40.015Z,28.60
2019-01-31T08:52:14.957Z,27.75
2019-01-31T08:54:49.796Z,27.50
2019-01-31T08:57:24.696Z,27.70
2019-01-31T08:59:59.811Z,26.60
2019-01-31T09:02:34.479Z,27.48
2019-01-31T09:05:09.552Z,26.75
2019-01-31T09:07:44.009Z,25.60
2019-01-31T09:10:20.944Z,26.10
2019-01-31T09:12:55.482Z,24.32
2019-01-31T09:15:32.121Z,25.12
2019-01-31T09:18:06.867Z,23.45
2019-01-31T09:20:57.364Z,22.25
2019-01-31T09:24:17.557Z,22.30
2019-01-31T09:27:37.747Z,20.40
2019-01-31T09:31:00.617Z,20.05
2019-01-31T09:34:36.930Z,19.82
2019-01-31T09:37:53.717Z,19.27
2019-01-31T09:41:09.443Z,19.42
2019-01-31T09:44:09.210Z,18.07
2019-01-31T09:47:19.789Z,18.25
2019-01-31T09:50:38.511Z,18.10
2019-01-31T09:53:57.157Z,17.37
2019-01-31T09:56:53.559Z,17.52
2019-01-31T09:59:56.039Z,16.60
2019-01-31T10:03:04.388Z,17.35
2019-01-31T10:06:12.525Z,15.48
2019-01-31T10:09:27.084Z,15.50
2019-01-31T10:12:38.598Z,15.80
2019-01-31T10:15:39.524Z,16.07
2019-01-31T10:18:59.372Z,15.63
2019-01-31T10:22:05.657Z,15.43
2019-01-31T10:25:17.271Z,14.35
2019-01-31T10:28:13.780Z,13.95
2019-01-31T10:30:58.359Z,15.13
2019-01-31T10:34:02.334Z,13.62
2019-01-31T10:36:50.798Z,14.35
2019-01-31T10:40:09.047Z,13.60
2019-01-31T10:43:13.392Z,13.93
2019-01-31T10:46:14.006Z,14.60
2019-01-31T10:49:48.969Z,13.83
2019-01-31T10:52:46.451Z,13.60
2019-01-31T10:56:04.939Z,13.88
2019-01-31T10:59:12.699Z,13.22
2019-01-31T11:02:10.830Z,12.78
2019-01-31T11:05:28.514Z,13.22
2019-01-31T11:08:46.947Z,13.22
2019-01-31T11:12:16.443Z,13.22
2019-01-31T11:15:15.345Z,13.08
2019-01-31T11:18:35.437Z,13.00
2019-01-31T11:21:34.883Z,13.50
2019-01-31T11:24:57.049Z,13.32
2019-01-31T11:28:26.238Z,12.20
2019-01-31T11:31:43.448Z,12.85
2019-01-31T11:34:43.266Z,11.55
2019-01-31T11:37:59.223Z,12.23
2019-01-31T11:41:07.260Z,12.13
2019-01-31T11:44:26.729Z,12.70
2019-01-31T11:47:33.043Z,11.33
2019-01-31T11:50:30.025Z,12.17
2019-01-31T11:53:34.466Z,11.70
2019-01-31T11:56:29.798Z,11.50
2019-01-31T11:59:08.594Z,11.53
2019-01-31T12:01:43.957Z,12.63
2019-01-31T12:04:23.194Z,12.30
2019-01-31T12:07:00.875Z,11.83
2019-01-31T12:09:35.279Z,11.67
2019-01-31T12:12:10.506Z,12.23
2019-01-31T12:14:45.368Z,12.20
2019-01-31T12:20:07.350Z,12.23
2019-01-31T12:22:41.981Z,11.30
2019-01-31T12:25:16.482Z,11.77
2019-01-31T12:27:51.207Z,12.07
2019-01-31T12:30:30.203Z,12.97
2019-01-31T12:33:04.801Z,12.07
2019-01-31T12:35:58.889Z,12.53
2019-01-31T12:38:36.850Z,12.20
2019-01-31T12:41:09.891Z,12.90
2019-01-31T12:44:03.554Z,13.43
2019-01-31T12:46:38.477Z,13.27
2019-01-31T12:49:13.508Z,11.23
2019-01-31T12:51:48.039Z,12.30
2019-01-31T12:54:22.984Z,12.87
2019-01-31T12:57:16.821Z,13.47
2019-01-31T12:59:51.453Z,13.23
2019-01-31T13:02:25.964Z,12.60
2019-01-31T13:05:18.762Z,12.17
2019-01-31T13:07:53.831Z,11.90
2019-01-31T13:10:47.378Z,11.87
2019-01-31T13:13:22.599Z,12.03
2019-01-31T13:15:57.374Z,12.27
2019-01-31T13:18:32.342Z,12.90
2019-01-31T13:21:07.208Z,12.17
2019-01-31T13:24:01.801Z,12.10
2019-01-31T13:26:36.552Z,11.47
2019-01-31T13:29:11.051Z,11.17
2019-01-31T13:31:46.238Z,11.93
2019-01-31T13:34:21.048Z,12.03
2019-01-31T13:36:55.880Z,12.40
2019-01-31T13:39:30.126Z,11.90
2019-01-31T13:42:05.392Z,12.67
2019-01-31T13:44:40.062Z,12.27
2019-01-31T13:47:14.795Z,11.07
2019-01-31T13:49:49.451Z,12.13
2019-01-31T13:52:24.864Z,11.33
2019-01-31T13:54:59.629Z,11.57
2019-01-31T13:57:33.827Z,11.13
2019-01-31T14:00:09.322Z,10.57
2019-01-31T14:02:43.832Z,11.27
2019-01-31T14:05:18.839Z,11.13
2019-01-31T14:07:54.491Z,10.30
2019-01-31T14:10:30.155Z,11.27
2019-01-31T14:13:05.801Z,11.47
2019-01-31T14:15:41.057Z,10.87
2019-01-31T14:18:15.820Z,11.60
2019-01-31T14:21:09.606Z,11.47
2019-01-31T14:23:44.526Z,11.23
2019-01-31T14:26:19.540Z,11.30
2019-01-31T14:28:54.276Z,10.77
2019-01-31T14:31:28.648Z,12.33
2019-01-31T14:34:03.494Z,12.47
2019-01-31T14:36:38.046Z,11.80
2019-01-31T14:39:13.255Z,12.40
2019-01-31T14:41:47.522Z,12.03
2019-01-31T14:44:22.401Z,11.70
2019-01-31T14:46:57.014Z,11.95
2019-01-31T14:49:31.811Z,11.87
2019-01-31T14:52:07.180Z,12.40
2019-01-31T14:54:41.840Z,11.97
2019-01-31T14:57:16.678Z,11.57
2019-01-31T14:59:51.480Z,12.27
2019-01-31T15:02:26.171Z,11.67
2019-01-31T15:05:00.993Z,13.00
2019-01-31T15:07:36.058Z,11.80
2019-01-31T15:10:13.144Z,12.50
2019-01-31T15:12:47.476Z,12.70
2019-01-31T15:15:22.662Z,12.07
2019-01-31T15:17:57.280Z,12.00
2019-01-31T15:20:38.477Z,11.70
2019-01-31T15:23:13.590Z,11.43
2019-01-31T15:25:48.370Z,11.80
2019-01-31T15:28:42.022Z,12.03
2019-01-31T15:31:16.916Z,11.00
2019-01-31T15:33:51.662Z,11.77
2019-01-31T15:36:26.836Z,10.90
2019-01-31T15:39:01.423Z,12.07
2019-01-31T15:41:36.334Z,11.67
2019-01-31T15:44:11.005Z,12.27
2019-01-31T15:46:46.039Z,11.67
2019-01-31T15:49:20.688Z,11.93
2019-01-31T15:51:55.076Z,12.07
2019-01-31T15:54:30.687Z,11.73
2019-01-31T15:57:16.182Z,12.50
2019-01-31T15:59:41.542Z,11.57
2019-01-31T16:02:16.349Z,11.57
2019-01-31T16:04:51.463Z,12.10
2019-01-31T16:07:26.231Z,11.00
2019-01-31T16:10:01.215Z,11.88
2019-01-31T16:12:35.823Z,12.37
2019-01-31T16:15:11.484Z,12.10
2019-01-31T16:17:46.250Z,12.03
2019-01-31T16:20:20.837Z,11.20
2019-01-31T16:22:55.288Z,12.13
2019-01-31T16:25:29.929Z,11.60
2019-01-31T16:28:04.965Z,11.30
2019-01-31T16:30:39.806Z,12.00
2019-01-31T16:33:19.557Z,11.17
2019-01-31T16:35:58.743Z,12.03
2019-01-31T16:38:52.740Z,11.63
2019-01-31T16:41:27.523Z,11.78
2019-01-31T16:44:02.227Z,11.65
2019-01-31T16:46:55.740Z,11.63
2019-01-31T16:49:30.441Z,11.67
2019-01-31T16:52:05.098Z,11.60
2019-01-31T16:54:40.029Z,11.70
2019-01-31T16:57:14.434Z,11.60
2019-01-31T16:59:49.279Z,12.47
2019-01-31T17:02:24.993Z,12.47
2019-01-31T17:05:00.438Z,12.25
2019-01-31T17:07:54.079Z,11.67
2019-01-31T17:10:29.280Z,11.70
2019-01-31T17:13:04.342Z,11.50
2019-01-31T17:15:39.229Z,12.27
2019-01-31T17:18:14.136Z,12.00
2019-01-31T17:20:50.009Z,12.43
2019-01-31T17:23:24.739Z,12.47
2019-01-31T17:25:59.471Z,11.63
2019-01-31T17:28:34.706Z,12.10
2019-01-31T17:31:09.165Z,11.80
2019-01-31T17:33:44.069Z,12.00
2019-01-31T17:36:18.858Z,11.77
2019-01-31T17:38:53.730Z,11.60
2019-01-31T17:41:28.016Z,11.83
2019-01-31T17:44:02.758Z,11.40
2019-01-31T17:46:37.483Z,12.47
2019-01-31T17:49:31.178Z,12.07
2019-01-31T17:52:05.577Z,11.87
2019-01-31T17:54:40.645Z,11.93
2019-01-31T17:57:14.887Z,11.60
2019-01-31T17:59:50.130Z,11.68
2019-01-31T18:02:25.017Z,12.40
2019-01-31T18:04:59.724Z,12.30
2019-01-31T18:07:53.478Z,12.03
2019-01-31T18:10:27.985Z,12.07
2019-01-31T18:13:05.543Z,12.33
2019-01-31T18:15:42.226Z,11.77
2019-01-31T18:18:15.656Z,12.13
2019-01-31T18:20:50.467Z,11.60
2019-01-31T18:23:45.443Z,12.13
2019-01-31T18:26:19.438Z,11.50
2019-01-31T18:28:54.581Z,11.93
2019-01-31T18:31:28.995Z,11.65
2019-01-31T18:34:03.917Z,12.17
2019-01-31T18:36:38.445Z,12.27
2019-01-31T18:39:14.475Z,10.90
2019-01-31T18:41:49.523Z,11.83
2019-01-31T18:44:24.256Z,12.33
2019-01-31T18:47:17.681Z,11.83
2019-01-31T18:49:52.363Z,11.47
2019-01-31T18:52:27.139Z,11.22
2019-01-31T18:55:01.984Z,11.20
2019-01-31T18:57:36.604Z,11.73
2019-01-31T19:03:27.708Z,10.93
2019-01-31T19:06:02.377Z,11.90
2019-01-31T19:08:37.849Z,11.33
2019-01-31T19:11:12.464Z,10.77
2019-01-31T19:13:48.529Z,11.73
2019-01-31T19:16:24.202Z,10.70
2019-01-31T19:18:58.759Z,12.00
2019-01-31T19:21:34.321Z,11.73
2019-01-31T19:24:09.345Z,11.45
2019-01-31T19:26:44.555Z,11.63
2019-01-31T19:29:20.082Z,12.17
2019-01-31T19:31:54.509Z,11.40
2019-01-31T19:34:29.570Z,10.97
2019-01-31T19:37:04.363Z,12.10
2019-01-31T19:39:39.342Z,11.33
2019-01-31T19:42:14.031Z,11.13
2019-01-31T19:44:48.900Z,10.80
2019-01-31T19:47:23.269Z,10.53
2019-01-31T19:49:58.139Z,10.30
2019-01-31T19:52:32.891Z,10.82
2019-01-31T19:55:07.609Z,11.37
2019-01-31T19:57:42.228Z,10.53
2019-01-31T20:00:18.566Z,10.50
2019-01-31T20:02:53.580Z,10.13
2019-01-31T20:05:28.167Z,10.80
2019-01-31T20:08:02.628Z,11.43
2019-01-31T20:10:37.195Z,10.10
2019-01-31T20:13:12.009Z,9.93
2019-01-31T20:15:47.217Z,10.70
2019-01-31T20:18:22.148Z,9.47
2019-01-31T20:20:56.846Z,10.80
2019-01-31T20:23:32.320Z,10.35
2019-01-31T20:26:07.295Z,9.37
2019-01-31T20:28:41.786Z,9.63
2019-01-31T20:31:18.440Z,10.10
2019-01-31T20:33:52.780Z,9.93
2019-01-31T20:36:27.476Z,9.63
2019-01-31T20:39:01.798Z,10.10
2019-01-31T20:41:36.415Z,9.97
2019-01-31T20:44:11.229Z,9.17
2019-01-31T20:46:46.495Z,9.80
2019-01-31T20:49:21.077Z,9.53
2019-01-31T20:51:55.701Z,9.57
2019-01-31T20:54:30.615Z,9.80
2019-01-31T20:57:24.472Z,9.90
2019-01-31T20:59:58.890Z,9.08
2019-01-31T21:02:33.669Z,8.73
2019-01-31T21:05:08.264Z,9.13
2019-01-31T21:07:43.276Z,8.93
2019-01-31T21:10:17.847Z,8.85
2019-01-31T21:12:53.011Z,8.73
2019-01-31T21:15:30.183Z,8.60
2019-01-31T21:18:05.311Z,8.87
2019-01-31T21:20:40.051Z,8.93
2019-01-31T21:23:15.337Z,8.27
2019-01-31T21:25:52.542Z,8.13
2019-01-31T21:28:27.219Z,7.53
2019-01-31T21:31:02.104Z,8.40
2019-01-31T21:33:36.896Z,8.50
2019-01-31T21:36:11.298Z,8.20
2019-01-31T21:38:46.312Z,7.67
2019-01-31T21:41:21.094Z,7.83
2019-01-31T21:43:55.974Z,7.87
2019-01-31T21:46:30.711Z,8.27
2019-01-31T21:49:05.493Z,7.28
2019-01-31T21:51:39.929Z,8.57
2019-01-31T21:54:14.746Z,7.90
2019-01-31T21:57:07.536Z,8.47
2019-01-31T21:59:42.226Z,7.63
2019-01-31T22:02:16.966Z,7.83
2019-01-31T22:04:52.251Z,7.73
2019-01-31T22:07:27.239Z,7.60
2019-01-31T22:10:02.043Z,7.77
2019-01-31T22:12:36.881Z,7.17
2019-01-31T22:15:14.946Z,7.83
2019-01-31T22:17:49.375Z,7.43
2019-01-31T22:20:24.722Z,8.10
2019-01-31T22:22:59.192Z,7.55
2019-01-31T22:25:33.825Z,7.13
2019-01-31T22:28:08.580Z,7.27
2019-01-31T22:30:43.911Z,7.37
2019-01-31T22:33:18.427Z,7.27
2019-01-31T22:35:53.383Z,7.27
2019-01-31T22:38:47.164Z,7.17
2019-01-31T22:41:21.812Z,6.83
2019-01-31T22:43:57.260Z,6.93
2019-01-31T22:46:32.128Z,7.43
2019-01-31T22:49:07.068Z,6.73
2019-01-31T22:51:41.481Z,7.03
2019-01-31T22:54:16.378Z,7.30
2019-01-31T22:56:50.800Z,7.10
2019-01-31T22:59:25.615Z,6.97
2019-01-31T23:02:05.646Z,7.15
2019-01-31T23:04:40.071Z,6.97
2019-01-31T23:07:14.738Z,7.20
2019-01-31T23:09:49.421Z,6.80
2019-01-31T23:12:43.180Z,6.90
2019-01-31T23:15:18.022Z,6.75
2019-01-31T23:17:53.934Z,7.23
2019-01-31T23:20:30.564Z,6.83
2019-01-31T23:23:24.262Z,6.53
2019-01-31T23:25:59.088Z,6.93
2019-01-31T23:28:59.949Z,6.83
2019-01-31T23:31:34.583Z,6.47
2019-01-31T23:34:09.291Z,6.83
2019-01-31T23:36:44.157Z,6.47
2019-01-31T23:39:18.601Z,7.30
2019-01-31T23:41:53.721Z,6.50
2019-01-31T23:44:28.257Z,6.93
2019-01-31T23:47:22.481Z,6.80
2019-01-31T23:49:56.926Z,6.93
2019-01-31T23:52:31.777Z,7.23
2019-01-31T23:55:06.616Z,7.50
2019-01-31T23:57:41.832Z,7.07
